sensor_id;sensor_type;location;lat;lon;timestamp;temperature;humidity
18797;DHT22;9526;52.612;13.300;2022-08-30T00:00:13;15.10;99.90
18797;DHT22;9526;52.612;13.300;2022-08-30T00:02:57;15.10;99.90
18797;DHT22;9526;52.612;13.300;2022-08-30T00:05:22;15.10;99.90
18797;DHT22;9526;52.612;13.300;2022-08-30T00:07:47;15.00;99.90
18797;DHT22;9526;52.612;13.300;2022-08-30T00:10:11;15.00;99.90
18797;DHT22;9526;52.612;13.300;2022-08-30T00:12:35;15.00;99.90
18797;DHT22;9526;52.612;13.300;2022-08-30T00:14:59;14.90;99.90
18797;DHT22;9526;52.612;13.300;2022-08-30T00:17:23;14.90;99.90
18797;DHT22;9526;52.612;13.300;2022-08-30T00:19:48;14.90;99.90
18797;DHT22;9526;52.612;13.300;2022-08-30T00:22:12;14.90;99.90
18797;DHT22;9526;52.612;13.300;2022-08-30T00:24:37;14.80;99.90
18797;DHT22;9526;52.612;13.300;2022-08-30T00:27:01;14.90;99.90
18797;DHT22;9526;52.612;13.300;2022-08-30T00:29:24;14.80;99.90
18797;DHT22;9526;52.612;13.300;2022-08-30T00:31:48;14.80;99.90
18797;DHT22;9526;52.612;13.300;2022-08-30T00:34:12;14.80;99.90
18797;DHT22;9526;52.612;13.300;2022-08-30T00:36:37;14.80;99.90
18797;DHT22;9526;52.612;13.300;2022-08-30T00:39:01;14.70;99.90
18797;DHT22;9526;52.612;13.300;2022-08-30T00:41:26;14.70;99.90
18797;DHT22;9526;52.612;13.300;2022-08-30T00:43:50;14.70;99.90
18797;DHT22;9526;52.612;13.300;2022-08-30T00:46:13;14.60;99.90
18797;DHT22;9526;52.612;13.300;2022-08-30T00:48:40;14.60;99.90
18797;DHT22;9526;52.612;13.300;2022-08-30T00:51:08;14.60;99.90
18797;DHT22;9526;52.612;13.300;2022-08-30T00:53:35;14.60;99.90
18797;DHT22;9526;52.612;13.300;2022-08-30T00:56:01;14.60;99.90
18797;DHT22;9526;52.612;13.300;2022-08-30T00:58:30;14.50;99.90
18797;DHT22;9526;52.612;13.300;2022-08-30T01:00:57;14.50;99.90
18797;DHT22;9526;52.612;13.300;2022-08-30T01:03:23;14.40;99.90
18797;DHT22;9526;52.612;13.300;2022-08-30T01:05:48;14.50;99.90
18797;DHT22;9526;52.612;13.300;2022-08-30T01:08:13;14.40;99.90
18797;DHT22;9526;52.612;13.300;2022-08-30T01:10:38;14.40;99.90
18797;DHT22;9526;52.612;13.300;2022-08-30T01:13:01;14.30;99.90
18797;DHT22;9526;52.612;13.300;2022-08-30T01:15:27;14.40;99.90
18797;DHT22;9526;52.612;13.300;2022-08-30T01:17:51;14.30;99.90
18797;DHT22;9526;52.612;13.300;2022-08-30T01:20:20;14.30;99.90
18797;DHT22;9526;52.612;13.300;2022-08-30T01:23:04;14.30;99.90
18797;DHT22;9526;52.612;13.300;2022-08-30T01:25:30;14.20;99.90
18797;DHT22;9526;52.612;13.300;2022-08-30T01:27:56;14.30;99.90
18797;DHT22;9526;52.612;13.300;2022-08-30T01:30:22;14.20;99.90
18797;DHT22;9526;52.612;13.300;2022-08-30T01:32:46;14.20;99.90
18797;DHT22;9526;52.612;13.300;2022-08-30T01:35:12;14.20;99.90
18797;DHT22;9526;52.612;13.300;2022-08-30T01:37:38;14.10;99.90
18797;DHT22;9526;52.612;13.300;2022-08-30T01:40:04;14.10;99.90
18797;DHT22;9526;52.612;13.300;2022-08-30T01:42:29;14.10;99.90
18797;DHT22;9526;52.612;13.300;2022-08-30T01:44:53;14.00;99.90
18797;DHT22;9526;52.612;13.300;2022-08-30T01:47:18;14.10;99.90
18797;DHT22;9526;52.612;13.300;2022-08-30T01:49:42;14.00;99.90
18797;DHT22;9526;52.612;13.300;2022-08-30T01:52:06;14.00;99.90
18797;DHT22;9526;52.612;13.300;2022-08-30T01:54:32;14.00;99.90
18797;DHT22;9526;52.612;13.300;2022-08-30T01:57:00;14.00;99.90
18797;DHT22;9526;52.612;13.300;2022-08-30T01:59:25;14.00;99.90
18797;DHT22;9526;52.612;13.300;2022-08-30T02:01:49;14.00;99.90
18797;DHT22;9526;52.612;13.300;2022-08-30T02:04:13;14.00;99.90
18797;DHT22;9526;52.612;13.300;2022-08-30T02:06:38;13.90;99.90
18797;DHT22;9526;52.612;13.300;2022-08-30T02:09:02;13.90;99.90
18797;DHT22;9526;52.612;13.300;2022-08-30T02:11:26;13.80;99.90
18797;DHT22;9526;52.612;13.300;2022-08-30T02:13:52;13.80;99.90
18797;DHT22;9526;52.612;13.300;2022-08-30T02:16:18;13.80;99.90
18797;DHT22;9526;52.612;13.300;2022-08-30T02:18:44;13.80;99.90
18797;DHT22;9526;52.612;13.300;2022-08-30T02:21:09;13.80;99.90
18797;DHT22;9526;52.612;13.300;2022-08-30T02:23:33;13.80;99.90
18797;DHT22;9526;52.612;13.300;2022-08-30T02:25:57;13.80;99.90
18797;DHT22;9526;52.612;13.300;2022-08-30T02:28:21;13.70;99.90
18797;DHT22;9526;52.612;13.300;2022-08-30T02:30:48;13.70;99.90
18797;DHT22;9526;52.612;13.300;2022-08-30T02:33:12;13.70;99.90
18797;DHT22;9526;52.612;13.300;2022-08-30T02:35:35;13.70;99.90
18797;DHT22;9526;52.612;13.300;2022-08-30T02:37:59;13.60;99.90
18797;DHT22;9526;52.612;13.300;2022-08-30T02:40:23;13.60;99.90
18797;DHT22;9526;52.612;13.300;2022-08-30T02:42:47;13.60;99.90
18797;DHT22;9526;52.612;13.300;2022-08-30T02:45:11;13.60;99.90
18797;DHT22;9526;52.612;13.300;2022-08-30T02:47:39;13.60;99.90
18797;DHT22;9526;52.612;13.300;2022-08-30T02:50:09;13.60;99.90
18797;DHT22;9526;52.612;13.300;2022-08-30T02:52:33;13.60;99.90
18797;DHT22;9526;52.612;13.300;2022-08-30T02:54:57;13.50;99.90
18797;DHT22;9526;52.612;13.300;2022-08-30T02:57:22;13.50;99.90
18797;DHT22;9526;52.612;13.300;2022-08-30T02:59:45;13.50;99.90
18797;DHT22;9526;52.612;13.300;2022-08-30T03:02:09;13.50;99.90
18797;DHT22;9526;52.612;13.300;2022-08-30T03:04:34;13.50;99.90
18797;DHT22;9526;52.612;13.300;2022-08-30T03:06:59;13.50;99.90
18797;DHT22;9526;52.612;13.300;2022-08-30T03:09:23;13.40;99.90
18797;DHT22;9526;52.612;13.300;2022-08-30T03:11:47;13.40;99.90
18797;DHT22;9526;52.612;13.300;2022-08-30T03:14:10;13.30;99.90
18797;DHT22;9526;52.612;13.300;2022-08-30T03:16:34;13.40;99.90
18797;DHT22;9526;52.612;13.300;2022-08-30T03:18:58;13.40;99.90
18797;DHT22;9526;52.612;13.300;2022-08-30T03:21:23;13.30;99.90
18797;DHT22;9526;52.612;13.300;2022-08-30T03:23:47;13.30;99.90
18797;DHT22;9526;52.612;13.300;2022-08-30T03:26:11;13.30;99.90
18797;DHT22;9526;52.612;13.300;2022-08-30T03:28:35;13.30;99.90
18797;DHT22;9526;52.612;13.300;2022-08-30T03:30:59;13.30;99.90
18797;DHT22;9526;52.612;13.300;2022-08-30T03:33:23;13.30;99.90
18797;DHT22;9526;52.612;13.300;2022-08-30T03:35:48;13.30;99.90
18797;DHT22;9526;52.612;13.300;2022-08-30T03:38:13;13.30;99.90
18797;DHT22;9526;52.612;13.300;2022-08-30T03:40:37;13.30;99.90
18797;DHT22;9526;52.612;13.300;2022-08-30T03:43:01;13.30;99.90
18797;DHT22;9526;52.612;13.300;2022-08-30T03:45:26;13.40;99.90
18797;DHT22;9526;52.612;13.300;2022-08-30T03:47:50;13.30;99.90
18797;DHT22;9526;52.612;13.300;2022-08-30T03:50:14;13.30;99.90
18797;DHT22;9526;52.612;13.300;2022-08-30T03:52:38;13.30;99.90
18797;DHT22;9526;52.612;13.300;2022-08-30T03:55:04;13.30;99.90
18797;DHT22;9526;52.612;13.300;2022-08-30T03:57:29;13.40;99.90
18797;DHT22;9526;52.612;13.300;2022-08-30T03:59:55;13.40;99.90
18797;DHT22;9526;52.612;13.300;2022-08-30T04:02:19;13.30;99.90
18797;DHT22;9526;52.612;13.300;2022-08-30T04:04:43;13.30;99.90
18797;DHT22;9526;52.612;13.300;2022-08-30T04:07:07;13.30;99.90
18797;DHT22;9526;52.612;13.300;2022-08-30T04:09:31;13.20;99.90
18797;DHT22;9526;52.612;13.300;2022-08-30T04:11:56;13.20;99.90
18797;DHT22;9526;52.612;13.300;2022-08-30T04:14:21;13.10;99.90
18797;DHT22;9526;52.612;13.300;2022-08-30T04:16:45;13.20;99.90
18797;DHT22;9526;52.612;13.300;2022-08-30T04:19:08;13.20;99.90
18797;DHT22;9526;52.612;13.300;2022-08-30T04:21:32;13.20;99.90
18797;DHT22;9526;52.612;13.300;2022-08-30T04:24:04;13.20;99.90
18797;DHT22;9526;52.612;13.300;2022-08-30T04:26:28;13.20;99.90
18797;DHT22;9526;52.612;13.300;2022-08-30T04:28:54;13.20;99.90
18797;DHT22;9526;52.612;13.300;2022-08-30T04:31:18;13.30;99.90
18797;DHT22;9526;52.612;13.300;2022-08-30T04:33:43;13.30;99.90
18797;DHT22;9526;52.612;13.300;2022-08-30T04:36:08;13.30;99.90
18797;DHT22;9526;52.612;13.300;2022-08-30T04:38:33;13.30;99.90
18797;DHT22;9526;52.612;13.300;2022-08-30T04:40:58;13.40;99.90
18797;DHT22;9526;52.612;13.300;2022-08-30T04:43:22;13.40;99.90
18797;DHT22;9526;52.612;13.300;2022-08-30T04:45:48;13.40;99.90
18797;DHT22;9526;52.612;13.300;2022-08-30T04:48:13;13.50;99.90
18797;DHT22;9526;52.612;13.300;2022-08-30T04:50:38;13.50;99.90
18797;DHT22;9526;52.612;13.300;2022-08-30T04:53:05;13.50;99.90
18797;DHT22;9526;52.612;13.300;2022-08-30T04:55:29;13.60;99.90
18797;DHT22;9526;52.612;13.300;2022-08-30T04:57:53;13.60;99.90
18797;DHT22;9526;52.612;13.300;2022-08-30T05:00:18;13.70;99.90
18797;DHT22;9526;52.612;13.300;2022-08-30T05:02:44;13.70;99.90
18797;DHT22;9526;52.612;13.300;2022-08-30T05:05:08;13.80;99.90
18797;DHT22;9526;52.612;13.300;2022-08-30T05:07:50;13.80;99.90
18797;DHT22;9526;52.612;13.300;2022-08-30T05:10:14;13.90;99.90
18797;DHT22;9526;52.612;13.300;2022-08-30T05:12:37;14.00;99.90
18797;DHT22;9526;52.612;13.300;2022-08-30T05:15:01;14.00;99.90
18797;DHT22;9526;52.612;13.300;2022-08-30T05:17:25;14.10;99.90
18797;DHT22;9526;52.612;13.300;2022-08-30T05:19:50;14.20;99.90
18797;DHT22;9526;52.612;13.300;2022-08-30T05:22:14;14.20;99.90
18797;DHT22;9526;52.612;13.300;2022-08-30T05:24:38;14.20;99.90
18797;DHT22;9526;52.612;13.300;2022-08-30T05:27:02;14.30;99.90
18797;DHT22;9526;52.612;13.300;2022-08-30T05:29:26;14.40;99.90
18797;DHT22;9526;52.612;13.300;2022-08-30T05:31:50;14.50;99.90
18797;DHT22;9526;52.612;13.300;2022-08-30T05:34:14;14.50;99.90
18797;DHT22;9526;52.612;13.300;2022-08-30T05:36:39;14.60;99.90
18797;DHT22;9526;52.612;13.300;2022-08-30T05:39:03;14.60;99.90
18797;DHT22;9526;52.612;13.300;2022-08-30T05:41:27;14.70;99.90
18797;DHT22;9526;52.612;13.300;2022-08-30T05:43:52;14.80;99.90
18797;DHT22;9526;52.612;13.300;2022-08-30T05:46:16;14.90;99.90
18797;DHT22;9526;52.612;13.300;2022-08-30T05:48:40;14.90;99.90
18797;DHT22;9526;52.612;13.300;2022-08-30T05:51:07;15.00;99.90
18797;DHT22;9526;52.612;13.300;2022-08-30T05:53:34;15.00;99.90
18797;DHT22;9526;52.612;13.300;2022-08-30T05:56:00;15.10;99.90
18797;DHT22;9526;52.612;13.300;2022-08-30T05:58:24;15.20;99.90
18797;DHT22;9526;52.612;13.300;2022-08-30T06:00:47;15.30;99.90
18797;DHT22;9526;52.612;13.300;2022-08-30T06:03:11;15.40;99.90
18797;DHT22;9526;52.612;13.300;2022-08-30T06:05:36;15.40;99.90
18797;DHT22;9526;52.612;13.300;2022-08-30T06:08:00;15.50;99.90
18797;DHT22;9526;52.612;13.300;2022-08-30T06:10:25;15.60;99.90
18797;DHT22;9526;52.612;13.300;2022-08-30T06:12:49;15.70;99.90
18797;DHT22;9526;52.612;13.300;2022-08-30T06:15:12;15.70;99.90
18797;DHT22;9526;52.612;13.300;2022-08-30T06:17:36;15.80;99.90
18797;DHT22;9526;52.612;13.300;2022-08-30T06:20:00;15.90;99.90
18797;DHT22;9526;52.612;13.300;2022-08-30T06:22:24;16.00;99.90
18797;DHT22;9526;52.612;13.300;2022-08-30T06:24:48;16.10;99.90
18797;DHT22;9526;52.612;13.300;2022-08-30T06:27:19;16.10;99.90
18797;DHT22;9526;52.612;13.300;2022-08-30T06:29:43;16.20;99.90
18797;DHT22;9526;52.612;13.300;2022-08-30T06:32:07;16.30;99.90
18797;DHT22;9526;52.612;13.300;2022-08-30T06:34:31;16.40;99.90
18797;DHT22;9526;52.612;13.300;2022-08-30T06:36:54;16.50;99.90
18797;DHT22;9526;52.612;13.300;2022-08-30T06:39:18;16.60;99.90
18797;DHT22;9526;52.612;13.300;2022-08-30T06:41:42;16.70;99.90
18797;DHT22;9526;52.612;13.300;2022-08-30T06:44:34;16.80;99.90
18797;DHT22;9526;52.612;13.300;2022-08-30T06:46:57;16.90;99.90
18797;DHT22;9526;52.612;13.300;2022-08-30T06:49:21;17.00;99.90
18797;DHT22;9526;52.612;13.300;2022-08-30T06:51:45;17.00;99.90
18797;DHT22;9526;52.612;13.300;2022-08-30T06:54:09;17.10;99.90
18797;DHT22;9526;52.612;13.300;2022-08-30T06:56:33;17.10;99.90
18797;DHT22;9526;52.612;13.300;2022-08-30T06:58:58;17.20;99.90
18797;DHT22;9526;52.612;13.300;2022-08-30T07:01:25;17.30;99.90
18797;DHT22;9526;52.612;13.300;2022-08-30T07:03:50;17.40;99.90
18797;DHT22;9526;52.612;13.300;2022-08-30T07:06:14;17.50;99.90
18797;DHT22;9526;52.612;13.300;2022-08-30T07:08:40;17.50;99.90
18797;DHT22;9526;52.612;13.300;2022-08-30T07:11:05;17.50;99.90
18797;DHT22;9526;52.612;13.300;2022-08-30T07:13:29;17.60;99.90
18797;DHT22;9526;52.612;13.300;2022-08-30T07:15:53;17.70;99.90
18797;DHT22;9526;52.612;13.300;2022-08-30T07:18:19;17.80;99.90
18797;DHT22;9526;52.612;13.300;2022-08-30T07:21:06;17.80;99.90
18797;DHT22;9526;52.612;13.300;2022-08-30T07:23:31;17.90;99.90
18797;DHT22;9526;52.612;13.300;2022-08-30T07:25:55;18.00;99.90
18797;DHT22;9526;52.612;13.300;2022-08-30T07:28:19;18.00;99.90
18797;DHT22;9526;52.612;13.300;2022-08-30T07:30:43;18.10;99.90
18797;DHT22;9526;52.612;13.300;2022-08-30T07:33:07;18.10;99.90
18797;DHT22;9526;52.612;13.300;2022-08-30T07:35:32;18.10;99.90
18797;DHT22;9526;52.612;13.300;2022-08-30T07:37:56;18.10;99.90
18797;DHT22;9526;52.612;13.300;2022-08-30T07:40:20;18.10;99.90
18797;DHT22;9526;52.612;13.300;2022-08-30T07:42:45;18.20;99.90
18797;DHT22;9526;52.612;13.300;2022-08-30T07:45:09;18.20;99.90
18797;DHT22;9526;52.612;13.300;2022-08-30T07:47:33;18.20;99.90
18797;DHT22;9526;52.612;13.300;2022-08-30T07:49:58;18.20;99.90
18797;DHT22;9526;52.612;13.300;2022-08-30T07:52:24;18.30;99.90
18797;DHT22;9526;52.612;13.300;2022-08-30T07:54:51;18.40;99.90
18797;DHT22;9526;52.612;13.300;2022-08-30T07:57:15;18.40;99.90
18797;DHT22;9526;52.612;13.300;2022-08-30T07:59:39;18.50;99.90
18797;DHT22;9526;52.612;13.300;2022-08-30T08:02:03;18.50;99.90
18797;DHT22;9526;52.612;13.300;2022-08-30T08:04:26;18.50;99.90
18797;DHT22;9526;52.612;13.300;2022-08-30T08:06:50;18.50;99.90
18797;DHT22;9526;52.612;13.300;2022-08-30T08:09:17;18.50;99.90
18797;DHT22;9526;52.612;13.300;2022-08-30T08:11:41;18.40;99.90
18797;DHT22;9526;52.612;13.300;2022-08-30T08:14:06;18.30;99.90
18797;DHT22;9526;52.612;13.300;2022-08-30T08:16:34;18.20;99.90
18797;DHT22;9526;52.612;13.300;2022-08-30T08:19:00;18.20;99.90
18797;DHT22;9526;52.612;13.300;2022-08-30T08:21:25;18.20;99.90
18797;DHT22;9526;52.612;13.300;2022-08-30T08:23:50;18.10;99.90
18797;DHT22;9526;52.612;13.300;2022-08-30T08:26:16;18.00;99.90
18797;DHT22;9526;52.612;13.300;2022-08-30T08:28:39;18.00;99.90
18797;DHT22;9526;52.612;13.300;2022-08-30T08:31:13;18.00;99.90
18797;DHT22;9526;52.612;13.300;2022-08-30T08:33:37;17.90;99.90
18797;DHT22;9526;52.612;13.300;2022-08-30T08:36:01;17.90;99.90
18797;DHT22;9526;52.612;13.300;2022-08-30T08:38:30;17.90;99.90
18797;DHT22;9526;52.612;13.300;2022-08-30T08:40:59;17.90;99.90
18797;DHT22;9526;52.612;13.300;2022-08-30T08:43:32;17.80;99.90
18797;DHT22;9526;52.612;13.300;2022-08-30T08:46:03;17.80;99.90
18797;DHT22;9526;52.612;13.300;2022-08-30T08:48:34;17.80;99.90
18797;DHT22;9526;52.612;13.300;2022-08-30T08:51:25;17.80;99.90
18797;DHT22;9526;52.612;13.300;2022-08-30T08:54:12;17.70;99.90
18797;DHT22;9526;52.612;13.300;2022-08-30T08:56:37;17.70;99.90
18797;DHT22;9526;52.612;13.300;2022-08-30T08:59:04;17.70;99.90
18797;DHT22;9526;52.612;13.300;2022-08-30T09:01:30;17.70;99.90
18797;DHT22;9526;52.612;13.300;2022-08-30T09:03:55;17.70;99.90
18797;DHT22;9526;52.612;13.300;2022-08-30T09:06:49;17.80;99.90
18797;DHT22;9526;52.612;13.300;2022-08-30T09:09:18;17.80;99.90
18797;DHT22;9526;52.612;13.300;2022-08-30T09:11:45;17.70;99.90
18797;DHT22;9526;52.612;13.300;2022-08-30T09:14:15;17.70;99.90
18797;DHT22;9526;52.612;13.300;2022-08-30T09:16:51;17.80;99.90
18797;DHT22;9526;52.612;13.300;2022-08-30T09:19:38;17.80;99.90
18797;DHT22;9526;52.612;13.300;2022-08-30T09:22:21;17.90;99.90
18797;DHT22;9526;52.612;13.300;2022-08-30T09:24:49;18.10;99.90
18797;DHT22;9526;52.612;13.300;2022-08-30T09:27:27;18.00;99.90
18797;DHT22;9526;52.612;13.300;2022-08-30T09:29:56;18.00;99.90
18797;DHT22;9526;52.612;13.300;2022-08-30T09:32:28;18.20;99.90
18797;DHT22;9526;52.612;13.300;2022-08-30T09:34:54;18.30;99.90
18797;DHT22;9526;52.612;13.300;2022-08-30T09:37:25;18.40;99.90
18797;DHT22;9526;52.612;13.300;2022-08-30T09:39:51;18.50;99.90
18797;DHT22;9526;52.612;13.300;2022-08-30T09:42:19;18.60;99.90
18797;DHT22;9526;52.612;13.300;2022-08-30T09:44:44;18.50;99.90
18797;DHT22;9526;52.612;13.300;2022-08-30T09:47:19;18.60;99.90
18797;DHT22;9526;52.612;13.300;2022-08-30T09:49:45;18.70;99.90
18797;DHT22;9526;52.612;13.300;2022-08-30T09:52:31;18.80;99.90
18797;DHT22;9526;52.612;13.300;2022-08-30T09:55:08;18.90;99.90
18797;DHT22;9526;52.612;13.300;2022-08-30T09:57:46;18.90;99.90
18797;DHT22;9526;52.612;13.300;2022-08-30T10:00:17;19.10;99.90
18797;DHT22;9526;52.612;13.300;2022-08-30T10:03:04;19.20;99.90
18797;DHT22;9526;52.612;13.300;2022-08-30T10:06:02;19.30;99.90
18797;DHT22;9526;52.612;13.300;2022-08-30T10:08:44;19.40;99.90
18797;DHT22;9526;52.612;13.300;2022-08-30T10:11:19;19.40;99.90
18797;DHT22;9526;52.612;13.300;2022-08-30T10:16:57;19.60;99.90
18797;DHT22;9526;52.612;13.300;2022-08-30T10:19:41;19.70;99.90
18797;DHT22;9526;52.612;13.300;2022-08-30T10:22:13;19.80;99.90
18797;DHT22;9526;52.612;13.300;2022-08-30T10:24:42;19.90;99.90
18797;DHT22;9526;52.612;13.300;2022-08-30T10:27:10;20.10;99.90
18797;DHT22;9526;52.612;13.300;2022-08-30T10:29:43;20.10;99.90
18797;DHT22;9526;52.612;13.300;2022-08-30T10:32:16;20.20;99.90
18797;DHT22;9526;52.612;13.300;2022-08-30T10:34:48;20.20;99.90
18797;DHT22;9526;52.612;13.300;2022-08-30T10:37:18;20.40;99.90
18797;DHT22;9526;52.612;13.300;2022-08-30T10:39:46;20.40;99.90
18797;DHT22;9526;52.612;13.300;2022-08-30T10:42:20;20.40;99.90
18797;DHT22;9526;52.612;13.300;2022-08-30T10:44:49;20.30;99.90
18797;DHT22;9526;52.612;13.300;2022-08-30T10:47:22;20.30;99.90
18797;DHT22;9526;52.612;13.300;2022-08-30T10:49:59;20.40;99.90
18797;DHT22;9526;52.612;13.300;2022-08-30T10:52:34;20.40;99.90
18797;DHT22;9526;52.612;13.300;2022-08-30T10:55:07;20.50;99.90
18797;DHT22;9526;52.612;13.300;2022-08-30T10:57:33;20.60;99.90
18797;DHT22;9526;52.612;13.300;2022-08-30T11:00:01;20.60;99.90
18797;DHT22;9526;52.612;13.300;2022-08-30T11:02:49;20.50;99.90
18797;DHT22;9526;52.612;13.300;2022-08-30T11:06:00;20.60;99.90
18797;DHT22;9526;52.612;13.300;2022-08-30T11:08:44;20.70;99.90
18797;DHT22;9526;52.612;13.300;2022-08-30T11:11:33;20.90;99.90
18797;DHT22;9526;52.612;13.300;2022-08-30T11:14:03;21.00;99.90
18797;DHT22;9526;52.612;13.300;2022-08-30T11:16:34;21.20;99.90
18797;DHT22;9526;52.612;13.300;2022-08-30T11:19:00;21.30;99.90
18797;DHT22;9526;52.612;13.300;2022-08-30T11:21:32;21.10;99.90
18797;DHT22;9526;52.612;13.300;2022-08-30T11:24:04;21.10;99.90
18797;DHT22;9526;52.612;13.300;2022-08-30T11:26:58;21.30;99.90
18797;DHT22;9526;52.612;13.300;2022-08-30T11:29:37;21.40;99.90
18797;DHT22;9526;52.612;13.300;2022-08-30T11:32:23;21.40;99.90
18797;DHT22;9526;52.612;13.300;2022-08-30T11:34:59;21.50;99.90
18797;DHT22;9526;52.612;13.300;2022-08-30T11:37:34;21.50;99.90
18797;DHT22;9526;52.612;13.300;2022-08-30T11:40:01;21.70;99.90
18797;DHT22;9526;52.612;13.300;2022-08-30T11:42:35;21.80;99.90
18797;DHT22;9526;52.612;13.300;2022-08-30T11:51:32;22.20;99.90
18797;DHT22;9526;52.612;13.300;2022-08-30T11:55:03;22.30;99.90
18797;DHT22;9526;52.612;13.300;2022-08-30T11:57:42;22.60;99.90
18797;DHT22;9526;52.612;13.300;2022-08-30T12:00:25;22.80;99.90
18797;DHT22;9526;52.612;13.300;2022-08-30T12:02:58;22.80;99.90
18797;DHT22;9526;52.612;13.300;2022-08-30T12:05:46;23.00;99.90
18797;DHT22;9526;52.612;13.300;2022-08-30T12:08:48;23.50;99.90
18797;DHT22;9526;52.612;13.300;2022-08-30T12:14:50;23.70;99.90
18797;DHT22;9526;52.612;13.300;2022-08-30T12:17:23;23.70;99.90
18797;DHT22;9526;52.612;13.300;2022-08-30T12:20:26;23.70;99.90
18797;DHT22;9526;52.612;13.300;2022-08-30T12:22:52;23.90;99.90
18797;DHT22;9526;52.612;13.300;2022-08-30T12:25:26;24.00;99.90
18797;DHT22;9526;52.612;13.300;2022-08-30T12:28:11;24.00;99.90
18797;DHT22;9526;52.612;13.300;2022-08-30T12:30:38;24.30;99.90
18797;DHT22;9526;52.612;13.300;2022-08-30T12:33:03;24.60;99.90
18797;DHT22;9526;52.612;13.300;2022-08-30T12:35:27;24.60;99.90
18797;DHT22;9526;52.612;13.300;2022-08-30T12:37:58;24.50;99.90
18797;DHT22;9526;52.612;13.300;2022-08-30T12:40:23;24.70;99.90
18797;DHT22;9526;52.612;13.300;2022-08-30T12:42:51;24.70;99.90
18797;DHT22;9526;52.612;13.300;2022-08-30T12:45:21;24.90;99.90
18797;DHT22;9526;52.612;13.300;2022-08-30T12:47:51;25.00;99.90
18797;DHT22;9526;52.612;13.300;2022-08-30T12:50:19;24.80;99.90
18797;DHT22;9526;52.612;13.300;2022-08-30T12:52:47;24.80;99.90
18797;DHT22;9526;52.612;13.300;2022-08-30T12:55:23;24.60;99.90
18797;DHT22;9526;52.612;13.300;2022-08-30T12:57:57;24.70;99.90
18797;DHT22;9526;52.612;13.300;2022-08-30T13:00:27;24.70;99.90
18797;DHT22;9526;52.612;13.300;2022-08-30T13:02:54;24.70;99.90
18797;DHT22;9526;52.612;13.300;2022-08-30T13:05:49;24.60;99.90
18797;DHT22;9526;52.612;13.300;2022-08-30T13:08:19;24.70;99.90
18797;DHT22;9526;52.612;13.300;2022-08-30T13:10:53;24.60;99.90
18797;DHT22;9526;52.612;13.300;2022-08-30T13:13:36;24.40;99.90
18797;DHT22;9526;52.612;13.300;2022-08-30T13:16:22;24.50;99.90
18797;DHT22;9526;52.612;13.300;2022-08-30T13:18:52;24.60;99.90
18797;DHT22;9526;52.612;13.300;2022-08-30T13:21:21;24.60;99.90
18797;DHT22;9526;52.612;13.300;2022-08-30T13:23:51;24.80;99.90
18797;DHT22;9526;52.612;13.300;2022-08-30T13:26:19;24.50;99.90
18797;DHT22;9526;52.612;13.300;2022-08-30T13:28:46;24.40;99.90
18797;DHT22;9526;52.612;13.300;2022-08-30T13:31:15;24.10;99.90
18797;DHT22;9526;52.612;13.300;2022-08-30T13:33:40;23.90;99.90
18797;DHT22;9526;52.612;13.300;2022-08-30T13:36:07;23.90;99.90
18797;DHT22;9526;52.612;13.300;2022-08-30T13:38:32;24.00;99.90
18797;DHT22;9526;52.612;13.300;2022-08-30T13:40:57;23.80;99.90
18797;DHT22;9526;52.612;13.300;2022-08-30T13:43:22;23.70;99.90
18797;DHT22;9526;52.612;13.300;2022-08-30T13:45:47;23.80;99.90
18797;DHT22;9526;52.612;13.300;2022-08-30T13:48:14;23.80;99.90
18797;DHT22;9526;52.612;13.300;2022-08-30T13:50:46;23.80;99.90
18797;DHT22;9526;52.612;13.300;2022-08-30T13:53:11;23.60;99.90
18797;DHT22;9526;52.612;13.300;2022-08-30T13:55:36;23.60;99.90
18797;DHT22;9526;52.612;13.300;2022-08-30T13:58:01;23.50;99.90
18797;DHT22;9526;52.612;13.300;2022-08-30T14:00:26;23.40;99.90
18797;DHT22;9526;52.612;13.300;2022-08-30T14:02:55;23.10;99.90
18797;DHT22;9526;52.612;13.300;2022-08-30T14:05:24;23.10;99.90
18797;DHT22;9526;52.612;13.300;2022-08-30T14:08:11;22.90;99.90
18797;DHT22;9526;52.612;13.300;2022-08-30T14:10:57;22.70;99.90
18797;DHT22;9526;52.612;13.300;2022-08-30T14:13:21;22.60;99.90
18797;DHT22;9526;52.612;13.300;2022-08-30T14:15:45;22.60;99.90
18797;DHT22;9526;52.612;13.300;2022-08-30T14:18:10;22.50;99.90
18797;DHT22;9526;52.612;13.300;2022-08-30T14:20:40;22.40;99.90
18797;DHT22;9526;52.612;13.300;2022-08-30T14:23:06;22.50;99.90
18797;DHT22;9526;52.612;13.300;2022-08-30T14:25:31;22.50;99.90
18797;DHT22;9526;52.612;13.300;2022-08-30T14:27:55;22.50;99.90
18797;DHT22;9526;52.612;13.300;2022-08-30T14:30:19;22.50;99.90
18797;DHT22;9526;52.612;13.300;2022-08-30T14:32:43;22.40;99.90
18797;DHT22;9526;52.612;13.300;2022-08-30T14:35:08;22.40;99.90
18797;DHT22;9526;52.612;13.300;2022-08-30T14:37:33;22.40;99.90
18797;DHT22;9526;52.612;13.300;2022-08-30T14:40:00;22.40;99.90
18797;DHT22;9526;52.612;13.300;2022-08-30T14:42:24;22.20;99.90
18797;DHT22;9526;52.612;13.300;2022-08-30T14:44:48;22.10;99.90
18797;DHT22;9526;52.612;13.300;2022-08-30T14:47:17;22.20;99.90
18797;DHT22;9526;52.612;13.300;2022-08-30T14:49:47;22.20;99.90
18797;DHT22;9526;52.612;13.300;2022-08-30T14:52:11;22.30;99.90
18797;DHT22;9526;52.612;13.300;2022-08-30T14:54:38;22.20;99.90
18797;DHT22;9526;52.612;13.300;2022-08-30T14:57:02;22.20;99.90
18797;DHT22;9526;52.612;13.300;2022-08-30T14:59:27;22.20;99.90
18797;DHT22;9526;52.612;13.300;2022-08-30T15:01:51;22.40;99.90
18797;DHT22;9526;52.612;13.300;2022-08-30T15:04:16;22.30;99.90
18797;DHT22;9526;52.612;13.300;2022-08-30T15:06:44;22.10;99.90
18797;DHT22;9526;52.612;13.300;2022-08-30T15:09:12;22.00;99.90
18797;DHT22;9526;52.612;13.300;2022-08-30T15:11:40;22.00;99.90
18797;DHT22;9526;52.612;13.300;2022-08-30T15:14:04;22.20;99.90
18797;DHT22;9526;52.612;13.300;2022-08-30T15:16:38;22.30;99.90
18797;DHT22;9526;52.612;13.300;2022-08-30T15:19:04;22.30;99.90
18797;DHT22;9526;52.612;13.300;2022-08-30T15:21:32;22.30;99.90
18797;DHT22;9526;52.612;13.300;2022-08-30T15:23:59;22.20;99.90
18797;DHT22;9526;52.612;13.300;2022-08-30T15:26:23;22.20;99.90
18797;DHT22;9526;52.612;13.300;2022-08-30T15:28:50;22.10;99.90
18797;DHT22;9526;52.612;13.300;2022-08-30T15:31:15;22.10;99.90
18797;DHT22;9526;52.612;13.300;2022-08-30T15:33:43;22.20;99.90
18797;DHT22;9526;52.612;13.300;2022-08-30T15:36:08;22.10;99.90
18797;DHT22;9526;52.612;13.300;2022-08-30T15:38:32;22.10;99.90
18797;DHT22;9526;52.612;13.300;2022-08-30T15:41:00;22.10;99.90
18797;DHT22;9526;52.612;13.300;2022-08-30T15:43:25;21.90;99.90
18797;DHT22;9526;52.612;13.300;2022-08-30T15:45:52;22.00;99.90
18797;DHT22;9526;52.612;13.300;2022-08-30T15:48:17;22.10;99.90